Estació municipal de Cànoves i Samalús (Vallès Oriental, P.N.del Montseny)

Consulta les dades en temps real de l'estació municipal de Cànoves i Samalús





Hora UTC 07:45
Temperatura 14.1 ºC
Humitat 72.3 %
Pressió 1011.1 hPa
Pluja 0.0 mm
Velocitat vent 5.9 km/h
Direcció vent SSE
Radiació solar 508.8 W/m²

Webcam

Dades diàries 2026-05-06



Hora UTC (hivern +1h; estiu +2h)
Temperatura (ºC) Humitat (%) Pressió (hPa) Velocitat vent (km/h) Precipitació (mm) Radiació solar (W/m²)
Hora UTC Aire Humitat Pressió Vel. Dir. Vel. Max Dir. Intent. màx 5 min. Rad. Sol.
00:05 9.3 93.0 1009.9 3.1 NNW 3.1 NNW 0.0 0.1
00:10 9.2 93.2 1009.9 5.0 NNW 8.8 NNW 0.0 0.1
00:15 9.1 93.5 1009.8 5.9 NNW 8.8 NW 0.0 0.1
00:20 9.2 94.1 1009.8 6.3 NNW 9.5 NNW 0.0 0.1
00:25 9.0 93.9 1009.7 4.6 NNW 8.8 N 0.0 0.1
00:30 9.1 94.5 1009.7 5.0 NNW 8.1 N 0.0 0.1
00:35 9.1 94.6 1009.7 5.3 N 8.8 NNE 0.0 0.1
00:40 9.0 94.3 1009.7 4.2 NNW 6.7 N 0.0 0.1
00:45 9.2 94.7 1009.7 4.9 NNW 8.1 N 0.0 0.1
00:50 8.9 94.3 1009.7 5.0 NNW 7.1 NNW 0.0 0.1
00:55 8.8 94.3 1009.7 3.9 NNW 6.0 NNW 0.0 0.1
01:00 8.6 94.4 1009.7 3.8 NNW 4.9 NNW 0.0 0.1
01:05 8.7 94.9 1009.6 5.1 NNW 6.7 NNW 0.0 0.1
01:10 8.7 94.9 1009.6 4.6 NNW 7.8 NNW 0.0 0.1
01:15 8.5 94.8 1009.6 4.0 NNW 5.6 N 0.0 0.1
01:20 8.3 94.6 1009.5 3.6 NNW 5.6 NNW 0.0 0.1
01:25 8.3 95.1 1009.6 4.8 NNW 7.8 NW 0.0 0.1
01:30 8.5 95.5 1009.5 6.1 NNW 8.8 NNW 0.0 0.1
01:35 8.5 95.6 1009.6 7.4 NNW 12.0 NNW 0.0 0.1
01:40 8.6 95.6 1009.5 5.9 NNW 8.5 N 0.0 0.1
01:45 8.6 95.3 1009.5 4.6 NNW 6.7 N 0.0 0.1
01:50 8.5 95.4 1009.5 4.3 NNW 6.0 NNW 0.0 0.1
01:55 8.4 95.3 1009.4 4.5 NNW 6.4 NNW 0.0 0.1
02:00 8.3 95.5 1009.4 4.9 NNW 6.7 NNW 0.0 0.1
02:05 8.3 95.5 1009.5 0.9 N 4.6 NNE 0.0 0.1
02:10 8.1 95.4 1009.4 4.4 N 8.5 NNW 0.0 0.1
02:15 8.1 95.6 1009.5 2.7 N 6.4 N 0.0 0.1
02:20 8.0 95.5 1009.6 2.4 NNW 4.6 N 0.0 0.1
02:25 7.9 95.6 1009.7 4.7 NW 7.4 NW 0.0 0.1
02:30 7.9 95.7 1009.7 4.7 NNW 7.8 NNW 0.0 0.1
02:35 8.0 96.1 1009.7 4.0 N 7.1 N 0.0 0.1
02:40 8.0 95.8 1009.7 2.4 NNW 3.9 NW 0.0 0.1
02:45 7.8 95.7 1009.8 3.5 NNW 6.4 NW 0.0 0.1
02:50 7.8 96.0 1009.8 5.1 NNW 6.7 NW 0.0 0.1
02:55 7.9 96.2 1009.8 5.2 NW 7.8 NW 0.0 0.1
03:00 8.0 96.3 1009.8 4.5 NNW 5.6 NNW 0.0 0.1
03:05 8.0 96.1 1009.8 1.5 NNW 4.9 NNW 0.0 0.1
03:10 7.7 95.7 1009.8 0.3 NNE 2.1 NNE 0.0 0.1
03:15 7.4 95.6 1009.8 2.6 NNW 3.9 NW 0.0 0.1
03:20 7.3 95.9 1009.8 2.9 NNW 4.6 NW 0.0 0.1
03:25 7.3 96.1 1009.8 4.5 NW 6.0 NNW 0.0 0.1
03:30 7.5 96.5 1009.8 5.0 NNW 7.1 NNW 0.0 0.1
03:35 7.5 96.5 1009.8 3.8 NNW 5.3 NNW 0.0 0.1
03:40 7.5 96.6 1009.8 4.4 NW 6.0 NW 0.0 0.1
03:45 7.6 96.7 1009.8 5.2 NNW 7.1 NNW 0.0 0.1
03:50 7.6 96.6 1009.8 5.6 NNW 6.7 NNW 0.0 0.1
03:55 7.6 96.6 1009.8 5.0 NNW 6.4 NNW 0.0 0.1
04:00 7.6 96.7 1009.8 5.6 NNW 8.5 NNW 0.0 0.1
04:05 7.7 96.9 1009.8 6.1 NNW 9.5 NNW 0.0 0.1
04:10 7.8 97.0 1009.8 5.6 NNW 8.1 N 0.0 0.1
04:15 7.9 96.8 1009.8 5.5 NNW 9.5 NNW 0.0 0.1
04:20 7.8 96.7 1009.9 5.8 NNW 8.8 NNW 0.0 0.3
04:25 7.7 96.6 1009.9 4.8 NNW 7.1 NNW 0.0 0.8
04:30 7.6 96.7 1010.0 4.8 NNW 7.8 NNW 0.0 1.6
04:35 7.7 97.1 1010.0 5.6 NNW 7.4 NNW 0.0 2.6
04:40 7.9 97.2 1010.0 5.9 NNW 8.1 NNW 0.0 3.1
04:45 8.1 97.5 1010.0 6.7 NNW 9.9 NNW 0.0 3.3
04:50 8.3 97.4 1010.1 5.4 NNW 10.2 N 0.0 4.1
04:55 8.5 97.5 1010.1 5.0 NNW 8.1 NW 0.0 5.2
05:00 8.7 97.4 1010.2 4.2 NW 7.8 NNW 0.0 7.3
05:05 8.8 97.2 1010.3 3.0 NW 6.7 NNW 0.0 9.0
05:10 8.8 97.1 1010.4 3.5 NNW 7.8 WNW 0.0 13.1
05:15 9.0 97.0 1010.4 5.2 N 8.8 N 0.0 16.4
05:20 9.0 96.8 1010.5 4.3 NNW 7.1 NNW 0.0 18.8
05:25 9.1 96.5 1010.5 4.9 NNW 8.5 NW 0.0 22.9
05:30 9.1 96.0 1010.5 4.8 NNW 8.8 NW 0.0 32.0
05:35 9.2 95.6 1010.5 3.5 NNW 8.8 NNW 0.0 31.2
05:40 9.2 95.5 1010.5 2.5 NW 6.7 NW 0.0 82.1
05:45 9.4 95.8 1010.6 3.7 NNW 7.1 NNW 0.0 144.6
05:50 9.7 95.4 1010.6 5.3 NNW 8.8 N 0.0 161.4
05:55 10.0 94.3 1010.6 3.2 N 7.1 NNW 0.0 179.5
06:00 10.2 92.9 1010.7 4.7 NNW 10.2 NW 0.0 193.4
06:05 10.5 91.6 1010.7 3.8 N 6.7 N 0.0 205.7
06:10 11.0 88.7 1010.7 4.0 N 8.1 N 0.0 219.6
06:15 11.4 87.5 1010.7 4.2 N 8.5 NNW 0.0 233.9
06:20 11.9 87.3 1010.7 2.0 NNW 4.9 WNW 0.0 248.3
06:25 12.4 86.4 1010.7 1.1 E 3.2 NNW 0.0 262.9
06:30 12.7 85.7 1010.6 2.2 NE 4.6 NE 0.0 278.2
06:35 12.8 84.3 1010.6 1.6 N 4.6 SSW 0.0 287.4
06:40 12.8 81.0 1010.6 4.6 WSW 8.8 WSW 0.0 96.0
06:45 13.0 78.5 1010.7 1.9 WSW 6.0 SSW 0.0 89.4
06:50 13.4 76.7 1010.7 5.1 WSW 9.2 WSW 0.0 279.9
06:55 13.6 75.9 1010.8 4.7 WSW 8.8 WSW 0.0 355.2
07:00 14.0 76.8 1010.8 4.7 SSE 9.5 SE 0.0 370.9
07:05 13.8 79.7 1010.8 4.8 SE 7.4 ESE 0.0 386.9
07:10 13.6 79.1 1010.7 3.8 E 7.4 ESE 0.0 402.3
07:15 13.8 78.8 1010.7 4.9 SE 10.2 SE 0.0 418.4
07:20 13.8 73.1 1010.8 5.5 SSW 9.9 S 0.0 434.9
07:25 14.1 73.8 1010.8 5.8 SSE 12.4 ESE 0.0 450.3
07:30 14.3 73.7 1010.8 7.2 SE 11.3 SE 0.0 464.9
07:35 14.3 71.8 1010.9 7.8 SSE 13.1 SE 0.0 479.0
07:40 14.4 72.7 1011.0 8.2 SSE 15.2 SSE 0.0 494.4
07:45 14.1 72.3 1011.1 5.9 SSE 13.1 S 0.0 508.8
Màxima 14.4 97.5 1011.1 8.2 SSE 15.2 SSE 0.0 508.8
Mínima 7.3 71.8 1009.4
Total 0.0